Time;durP1;ratioP1;P1;durP2;ratioP2;P2;SDS_P1;SDS_P2;PMS_P1;PMS_P2;Temp;Humidity;BMP_temperature;BMP_pressure;BME280_temperature;BME280_humidity;BME280_pressure;Samples;Min_cycle;Max_cycle;Signal;HPM_P1;HPM_P2
2022/12/07 00:09:54;;;;;;;10.15;6.70;;;;;;;20.69;52.91;100231.03;20746306;28;20075;-77
2022/12/07 00:19:54;;;;;;;9.93;6.18;;;;;;;20.65;52.77;100212.03;20736040;28;20038;-77
2022/12/07 00:29:54;;;;;;;8.88;6.00;;;;;;;20.64;52.54;100198.03;20755820;28;20133;-78
2022/12/07 00:39:55;;;;;;;9.82;5.95;;;;;;;20.64;52.99;100191.94;20746669;28;20046;-77
2022/12/07 00:49:55;;;;;;;8.27;5.70;;;;;;;20.57;52.90;100196.03;20735705;28;20053;-78
2022/12/07 00:59:57;;;;;;;8.70;5.40;;;;;;;20.58;52.74;100197.66;20735511;28;20037;-78
2022/12/07 01:09:57;;;;;;;9.60;5.75;;;;;;;20.57;52.97;100177.59;20739069;28;20074;-78
2022/12/07 01:19:58;;;;;;;7.50;5.38;;;;;;;20.53;52.69;100187.53;20734676;28;20067;-77
2022/12/07 01:29:58;;;;;;;7.60;5.22;;;;;;;20.52;52.85;100195.53;20732652;28;20146;-77
2022/12/07 01:39:59;;;;;;;8.63;5.18;;;;;;;20.50;52.82;100184.31;20726952;28;20045;-78
2022/12/07 01:49:59;;;;;;;8.00;5.13;;;;;;;20.52;52.66;100183.22;20736568;28;20053;-78
2022/12/07 02:00:00;;;;;;;8.43;4.90;;;;;;;20.52;52.40;100170.06;20746530;28;20049;-77
2022/12/07 02:10:19;;;;;;;7.07;4.78;;;;;;;20.52;52.51;100177.97;20729646;28;20056;-77
2022/12/07 02:20:51;;;;;;;7.40;5.00;;;;;;;20.50;52.29;100171.97;20727667;28;20130;-77
2022/12/07 02:30:56;;;;;;;7.32;4.85;;;;;;;20.47;52.23;100166.97;20735650;28;20052;-77
2022/12/07 02:41:13;;;;;;;7.05;4.93;;;;;;;20.46;52.42;100171.38;20742438;28;20060;-77
2022/12/07 02:51:14;;;;;;;6.28;4.30;;;;;;;20.48;52.17;100163.34;20734577;28;20044;-78
2022/12/07 03:01:29;;;;;;;7.28;4.80;;;;;;;20.46;52.46;100160.03;20733883;28;20046;-77
2022/12/07 03:11:55;;;;;;;6.05;4.20;;;;;;;20.44;52.30;100149.59;20717894;28;20041;-77
2022/12/07 03:22:07;;;;;;;5.15;4.05;;;;;;;20.44;52.27;100146.16;20738444;28;20513;-77
2022/12/07 03:32:30;;;;;;;6.10;4.20;;;;;;;20.47;52.22;100140.66;20736032;28;20038;-77
2022/12/07 03:42:32;;;;;;;6.90;4.20;;;;;;;20.44;52.21;100152.25;20753414;28;20568;-77
2022/12/07 03:52:40;;;;;;;5.90;3.97;;;;;;;20.44;52.25;100156.66;20751000;28;20045;-77
2022/12/07 04:02:41;;;;;;;5.00;3.95;;;;;;;20.43;52.33;100163.75;20743988;28;20056;-78
2022/12/07 04:12:42;;;;;;;5.35;3.90;;;;;;;20.42;52.51;100175.22;20743071;28;20071;-76
2022/12/07 04:22:43;;;;;;;5.63;4.15;;;;;;;20.44;52.17;100169.81;20739944;28;20042;-77
2022/12/07 04:32:43;;;;;;;5.20;3.83;;;;;;;20.42;52.15;100175.22;20745975;28;20183;-78
2022/12/07 04:42:44;;;;;;;5.60;3.78;;;;;;;20.41;52.30;100168.28;20742958;28;20472;-77
2022/12/07 04:52:44;;;;;;;7.60;4.40;;;;;;;20.41;52.46;100168.28;20736397;28;20111;-76
2022/12/07 05:02:45;;;;;;;6.22;4.00;;;;;;;20.43;52.37;100174.25;20715144;28;20192;-74
2022/12/07 05:12:45;;;;;;;5.68;4.10;;;;;;;20.49;53.05;100165.03;20707645;28;20055;-77
2022/12/07 05:22:46;;;;;;;8.80;4.60;;;;;;;20.58;53.64;100145.91;20709519;28;20255;-77
2022/12/07 05:32:46;;;;;;;18.70;5.88;;;;;;;20.66;54.04;100142.66;20708165;28;20167;-80
2022/12/07 05:42:46;;;;;;;21.23;6.32;;;;;;;20.76;53.85;100141.03;20698499;28;20050;-79
2022/12/07 05:52:47;;;;;;;22.73;5.90;;;;;;;20.80;53.52;100144.25;20705660;28;20037;-79
2022/12/07 06:02:48;;;;;;;17.20;6.47;;;;;;;20.71;50.12;100152.84;20728151;28;20167;-78
2022/12/07 06:12:49;;;;;;;12.35;8.93;;;;;;;20.18;38.83;100158.69;20731889;28;20045;-74
2022/12/07 06:22:49;;;;;;;13.40;6.00;;;;;;;20.49;48.19;100149.25;20746581;28;20055;-73
2022/12/07 06:32:49;;;;;;;10.80;6.07;;;;;;;20.65;49.47;100159.41;20740378;28;20084;-76
2022/12/07 06:42:50;;;;;;;16.23;7.25;;;;;;;20.85;52.00;100160.50;20738148;28;20107;-75
2022/12/07 06:52:52;;;;;;;13.60;6.60;;;;;;;21.02;54.23;100169.69;20733487;28;20065;-77
2022/12/07 07:02:52;;;;;;;12.57;6.43;;;;;;;21.12;53.44;100180.31;20763078;28;20487;-78
2022/12/07 07:12:53;;;;;;;8.65;5.65;;;;;;;21.18;53.13;100178.97;20760603;28;20047;-77
2022/12/07 07:22:54;;;;;;;10.43;5.65;;;;;;;21.16;52.59;100175.63;20738321;28;20046;-77
2022/12/07 07:33:02;;;;;;;10.35;5.13;;;;;;;21.21;51.98;100176.91;20750651;28;20065;-79
2022/12/07 07:43:03;;;;;;;9.02;4.78;;;;;;;21.28;51.52;100177.28;20739471;28;20049;-79
2022/12/07 07:53:03;;;;;;;8.15;4.75;;;;;;;21.33;51.25;100183.00;20737872;28;20033;-79
2022/12/07 08:03:04;;;;;;;9.30;5.32;;;;;;;21.38;51.30;100187.91;20731725;28;20042;-77
2022/12/07 08:13:11;;;;;;;8.45;4.82;;;;;;;21.43;50.77;100183.94;20762886;28;20559;-77
2022/12/07 08:23:12;;;;;;;7.25;4.40;;;;;;;21.45;50.02;100196.97;20754586;28;20073;-79
2022/12/07 08:33:12;;;;;;;7.03;4.65;;;;;;;21.51;50.80;100193.84;20759134;28;20144;-79
2022/12/07 08:43:12;;;;;;;8.38;4.47;;;;;;;21.55;50.16;100197.88;20777542;28;20052;-79
2022/12/07 08:53:13;;;;;;;9.20;4.60;;;;;;;21.59;50.13;100199.34;20775292;28;20038;-79
2022/12/07 09:03:14;;;;;;;9.00;5.07;;;;;;;21.54;48.27;100208.56;20758689;28;20156;-78
2022/12/07 09:13:14;;;;;;;24.98;7.07;;;;;;;21.42;47.06;100203.34;20755939;28;20041;-78
2022/12/07 09:23:15;;;;;;;24.05;6.47;;;;;;;21.36;47.27;100181.91;20751733;28;20551;-79
2022/12/07 09:33:15;;;;;;;15.27;5.32;;;;;;;21.41;47.54;100172.69;20760104;28;20967;-78
2022/12/07 09:43:24;;;;;;;11.02;5.43;;;;;;;21.46;47.81;100179.34;20763641;28;20057;-78
2022/12/07 09:53:36;;;;;;;8.68;4.63;;;;;;;21.47;47.98;100173.13;20758845;28;20038;-78
2022/12/07 10:03:40;;;;;;;8.53;4.67;;;;;;;21.52;48.16;100160.41;20744318;28;20080;-83
2022/12/07 10:13:45;;;;;;;10.60;5.07;;;;;;;21.45;48.45;100157.47;20802324;28;20041;-84
2022/12/07 10:24:05;;;;;;;10.13;4.10;;;;;;;21.49;48.60;100142.25;20792302;28;20076;-85
2022/12/07 10:34:35;;;;;;;5.97;4.40;;;;;;;21.51;48.43;100150.84;20782729;28;20081;-84
2022/12/07 10:44:35;;;;;;;7.25;4.22;;;;;;;21.58;48.68;100136.22;20786407;28;20038;-83
2022/12/07 10:54:44;;;;;;;6.87;3.57;;;;;;;21.59;48.46;100124.72;20792673;28;20052;-85
2022/12/07 11:04:59;;;;;;;5.22;3.60;;;;;;;21.63;48.27;100134.06;20787813;28;20282;-83
2022/12/07 11:15:13;;;;;;;4.82;3.30;;;;;;;21.72;48.35;100120.09;20771065;28;20092;-83
2022/12/07 11:25:25;;;;;;;4.57;3.03;;;;;;;21.66;48.07;100109.25;20734038;28;20056;-82
2022/12/07 11:35:28;;;;;;;6.40;3.45;;;;;;;21.65;47.96;100107.56;20769509;28;20448;-81
2022/12/07 11:45:36;;;;;;;5.32;3.40;;;;;;;21.63;47.56;100102.44;20744294;28;20638;-84
2022/12/07 11:55:57;;;;;;;5.65;3.38;;;;;;;21.68;47.87;100113.44;20748196;28;21279;-84
2022/12/07 12:05:57;;;;;;;5.00;3.00;;;;;;;21.71;47.68;100104.44;20736233;28;20041;-78
2022/12/07 12:15:57;;;;;;;4.82;3.17;;;;;;;21.74;47.87;100096.28;20736734;28;20033;-79
2022/12/07 12:26:01;;;;;;;4.05;3.00;;;;;;;21.82;47.45;100074.53;20738651;28;20049;-80
2022/12/07 12:36:17;;;;;;;3.40;2.72;;;;;;;21.81;46.98;100059.69;20749292;28;20456;-82
2022/12/07 12:46:30;;;;;;;7.25;2.70;;;;;;;21.86;46.85;100062.75;20758655;28;20049;-85
2022/12/07 12:56:42;;;;;;;3.53;2.72;;;;;;;21.89;46.57;100055.41;20740919;28;20079;-81
2022/12/07 13:06:43;;;;;;;3.55;2.55;;;;;;;21.88;46.82;100064.28;20762789;28;20084;-82
2022/12/07 13:16:43;;;;;;;4.15;2.63;;;;;;;21.78;46.58;100068.69;20786250;28;20057;-82
2022/12/07 13:26:44;;;;;;;4.00;2.17;;;;;;;21.71;46.59;100081.53;20797887;28;20162;-83
2022/12/07 13:36:46;;;;;;;4.00;2.33;;;;;;;21.67;45.92;100080.13;20782052;28;20084;-82
2022/12/07 13:46:46;;;;;;;4.25;2.67;;;;;;;21.67;45.83;100084.56;20765600;28;20492;-83
2022/12/07 13:56:51;;;;;;;6.13;2.45;;;;;;;21.65;45.84;100097.03;20736249;28;20049;-83
2022/12/07 14:06:51;;;;;;;6.18;2.55;;;;;;;21.54;46.08;100095.25;20802799;28;20045;-83
2022/12/07 14:16:56;;;;;;;3.97;2.10;;;;;;;21.66;46.12;100091.63;20802544;28;20049;-82
2022/12/07 14:26:57;;;;;;;3.08;2.05;;;;;;;21.68;46.78;100102.88;20780351;28;20050;-84
2022/12/07 14:36:59;;;;;;;4.40;2.17;;;;;;;21.65;46.58;100092.59;20775210;28;20481;-83
2022/12/07 14:46:59;;;;;;;3.45;2.00;;;;;;;21.64;47.19;100101.47;20774423;28;20044;-82
2022/12/07 14:57:01;;;;;;;4.72;2.90;;;;;;;21.43;44.14;100120.72;20766391;28;20046;-82
2022/12/07 15:07:04;;;;;;;4.05;2.17;;;;;;;21.44;45.32;100119.72;20769176;28;20056;-83
2022/12/07 15:17:05;;;;;;;4.07;2.15;;;;;;;21.44;46.43;100119.72;20768688;28;20049;-83
2022/12/07 15:27:05;;;;;;;5.25;2.10;;;;;;;21.42;46.51;100129.56;20758615;28;20034;-83
2022/12/07 15:37:06;;;;;;;2.72;1.95;;;;;;;21.40;47.14;100135.94;20747853;28;20071;-82
2022/12/07 15:47:07;;;;;;;2.25;1.70;;;;;;;21.43;47.05;100151.47;20753198;28;20675;-82
2022/12/07 15:57:07;;;;;;;2.00;1.70;;;;;;;21.40;46.86;100154.38;20762345;28;20050;-82
2022/12/07 16:07:08;;;;;;;2.17;1.75;;;;;;;21.38;46.94;100164.19;20773616;28;20056;-83
2022/12/07 16:17:09;;;;;;;1.77;1.65;;;;;;;21.36;47.18;100155.56;20764769;28;20052;-82
2022/12/07 16:27:10;;;;;;;3.42;1.70;;;;;;;21.35;46.98;100154.75;20747205;28;21025;-82
2022/12/07 16:37:10;;;;;;;2.08;1.83;;;;;;;21.32;47.17;100160.25;20757796;28;20053;-82
2022/12/07 16:47:11;;;;;;;7.90;1.83;;;;;;;21.22;46.83;100157.53;20735010;28;20138;-82
2022/12/07 16:57:11;;;;;;;3.58;2.10;;;;;;;21.25;47.54;100170.47;20758512;28;20069;-85
2022/12/07 17:07:12;;;;;;;2.67;1.85;;;;;;;21.21;47.37;100163.75;20748885;28;22285;-83
2022/12/07 17:17:13;;;;;;;3.13;2.00;;;;;;;21.23;48.51;100180.28;20741330;28;20489;-84
2022/12/07 17:27:14;;;;;;;6.80;2.38;;;;;;;21.25;49.30;100182.78;20723503;28;20295;-80
2022/12/07 17:37:15;;;;;;;7.47;2.17;;;;;;;21.31;49.87;100168.28;20715467;28;20560;-79
2022/12/07 17:47:17;;;;;;;4.50;2.03;;;;;;;21.27;50.10;100186.94;20711655;28;20047;-80
2022/12/07 17:57:18;;;;;;;5.03;2.30;;;;;;;21.29;50.06;100189.50;20739044;28;20076;-78
2022/12/07 18:07:18;;;;;;;5.78;2.60;;;;;;;21.29;49.88;100194.75;20738229;28;21585;-78
2022/12/07 18:17:19;;;;;;;4.47;2.03;;;;;;;21.29;49.30;100200.03;20726605;28;20271;-78
2022/12/07 18:27:19;;;;;;;6.72;2.30;;;;;;;21.25;49.94;100202.06;20728872;28;20053;-80
2022/12/07 18:37:26;;;;;;;8.20;2.40;;;;;;;21.28;49.73;100193.91;20729220;28;20050;-80
2022/12/07 18:47:28;;;;;;;7.80;2.40;;;;;;;21.25;51.02;100186.25;20714152;28;20056;-79
2022/12/07 18:57:32;;;;;;;7.53;2.80;;;;;;;21.23;51.28;100195.25;20711985;28;20041;-75
2022/12/07 19:07:33;;;;;;;7.43;2.50;;;;;;;21.21;51.05;100213.78;20714660;28;20378;-76
2022/12/07 19:17:35;;;;;;;6.35;2.50;;;;;;;21.20;51.20;100214.78;20729273;28;20046;-81
2022/12/07 19:27:37;;;;;;;5.10;2.43;;;;;;;21.15;51.55;100216.91;20749655;28;20085;-76
2022/12/07 19:37:38;;;;;;;9.55;3.05;;;;;;;21.16;51.09;100209.88;20723042;28;20042;-81
2022/12/07 19:47:39;;;;;;;5.32;2.65;;;;;;;21.16;51.55;100215.13;20765654;28;20161;-79
2022/12/07 19:57:40;;;;;;;7.75;2.78;;;;;;;21.12;51.15;100217.19;20742692;28;20038;-80
2022/12/07 20:07:43;;;;;;;8.80;3.00;;;;;;;21.09;51.15;100225.31;20746033;28;20049;-80
2022/12/07 20:17:45;;;;;;;7.43;2.83;;;;;;;21.13;51.28;100223.25;20739366;28;20152;-79
2022/12/07 20:27:45;;;;;;;6.30;3.73;;;;;;;21.02;49.50;100222.34;20756293;28;20051;-82
2022/12/07 20:37:49;;;;;;;9.07;3.60;;;;;;;20.98;49.84;100238.50;20749293;28;20045;-83
2022/12/07 20:47:50;;;;;;;9.02;3.88;;;;;;;21.00;50.11;100237.41;20718193;28;20145;-79
2022/12/07 20:57:51;;;;;;;10.57;4.57;;;;;;;20.98;50.41;100238.50;20746171;28;20040;-83
2022/12/07 21:07:51;;;;;;;6.53;4.00;;;;;;;20.98;50.14;100244.56;20759248;28;20634;-82
2022/12/07 21:17:52;;;;;;;8.65;4.63;;;;;;;20.93;49.99;100244.97;20746588;28;20125;-84
2022/12/07 21:27:53;;;;;;;9.32;4.07;;;;;;;20.89;50.63;100238.25;20760584;28;20520;-82
2022/12/07 21:37:53;;;;;;;6.22;4.03;;;;;;;20.88;50.46;100244.47;20746972;28;20171;-83
2022/12/07 21:47:54;;;;;;;7.70;4.32;;;;;;;20.84;50.66;100256.19;20735745;28;20053;-82
2022/12/07 21:57:54;;;;;;;6.93;4.35;;;;;;;20.86;51.00;100258.69;20737982;28;20539;-82
2022/12/07 22:07:55;;;;;;;6.35;4.13;;;;;;;20.78;50.55;100249.59;20736062;28;20068;-81
2022/12/07 22:17:55;;;;;;;6.20;4.63;;;;;;;20.79;50.79;100264.44;20734874;28;20048;-82
2022/12/07 22:27:57;;;;;;;5.72;4.15;;;;;;;20.77;50.87;100240.03;20747899;28;20054;-80
2022/12/07 22:37:57;;;;;;;5.40;4.30;;;;;;;20.76;51.17;100221.75;20741984;28;20041;-82
2022/12/07 22:47:57;;;;;;;6.90;4.57;;;;;;;20.75;51.19;100241.13;20728419;28;20045;-82
2022/12/07 22:57:58;;;;;;;5.85;4.25;;;;;;;20.72;51.33;100226.41;20725737;28;20048;-83
2022/12/07 23:07:58;;;;;;;6.47;4.32;;;;;;;20.67;51.37;100239.06;20735241;28;20050;-82
2022/12/07 23:18:00;;;;;;;6.45;4.38;;;;;;;20.67;51.14;100243.50;20745571;28;20049;-82
2022/12/07 23:28:00;;;;;;;7.05;4.80;;;;;;;20.65;51.31;100235.69;20736320;28;20052;-83
2022/12/07 23:38:01;;;;;;;5.43;3.90;;;;;;;20.63;51.69;100245.53;20739637;28;20042;-81
2022/12/07 23:48:01;;;;;;;6.20;4.05;;;;;;;20.64;51.43;100244.53;20735640;28;20049;-83
2022/12/07 23:58:02;;;;;;;7.00;4.43;;;;;;;20.62;51.35;100236.78;20747477;28;20455;-82
